sensor_id;sensor_type;location;lat;lon;timestamp;temperature;humidity
25512;DHT22;13414;44.534;18.700;2022-07-29T00:02:07;17.60;99.90
25512;DHT22;13414;44.534;18.700;2022-07-29T00:04:35;17.60;99.90
25512;DHT22;13414;44.534;18.700;2022-07-29T00:07:03;17.60;99.90
25512;DHT22;13414;44.534;18.700;2022-07-29T00:09:30;17.50;99.90
25512;DHT22;13414;44.534;18.700;2022-07-29T00:11:59;17.40;99.90
25512;DHT22;13414;44.534;18.700;2022-07-29T00:14:27;17.40;99.90
25512;DHT22;13414;44.534;18.700;2022-07-29T00:16:56;17.40;99.90
25512;DHT22;13414;44.534;18.700;2022-07-29T00:19:23;17.30;99.90
25512;DHT22;13414;44.534;18.700;2022-07-29T00:21:50;17.30;99.90
25512;DHT22;13414;44.534;18.700;2022-07-29T00:24:18;17.20;99.90
25512;DHT22;13414;44.534;18.700;2022-07-29T00:26:45;17.20;99.90
25512;DHT22;13414;44.534;18.700;2022-07-29T00:29:12;17.30;99.90
25512;DHT22;13414;44.534;18.700;2022-07-29T00:31:40;17.20;99.90
25512;DHT22;13414;44.534;18.700;2022-07-29T00:34:08;17.20;99.90
25512;DHT22;13414;44.534;18.700;2022-07-29T00:36:56;17.00;99.90
25512;DHT22;13414;44.534;18.700;2022-07-29T00:39:22;17.00;99.90
25512;DHT22;13414;44.534;18.700;2022-07-29T00:41:50;17.00;99.90
25512;DHT22;13414;44.534;18.700;2022-07-29T00:44:17;17.00;99.90
25512;DHT22;13414;44.534;18.700;2022-07-29T00:46:45;16.90;99.90
25512;DHT22;13414;44.534;18.700;2022-07-29T00:49:14;16.90;99.90
25512;DHT22;13414;44.534;18.700;2022-07-29T00:51:41;16.90;99.90
25512;DHT22;13414;44.534;18.700;2022-07-29T00:54:08;16.80;99.90
25512;DHT22;13414;44.534;18.700;2022-07-29T00:56:36;16.80;99.90
25512;DHT22;13414;44.534;18.700;2022-07-29T00:59:03;16.80;99.90
25512;DHT22;13414;44.534;18.700;2022-07-29T01:01:31;16.70;99.90
25512;DHT22;13414;44.534;18.700;2022-07-29T01:03:58;16.70;99.90
25512;DHT22;13414;44.534;18.700;2022-07-29T01:06:27;16.70;99.90
25512;DHT22;13414;44.534;18.700;2022-07-29T01:08:54;16.70;99.90
25512;DHT22;13414;44.534;18.700;2022-07-29T01:11:22;16.70;99.90
25512;DHT22;13414;44.534;18.700;2022-07-29T01:13:49;16.70;99.90
25512;DHT22;13414;44.534;18.700;2022-07-29T01:16:21;16.70;99.90
25512;DHT22;13414;44.534;18.700;2022-07-29T01:18:56;16.70;99.90
25512;DHT22;13414;44.534;18.700;2022-07-29T01:21:44;16.70;99.90
25512;DHT22;13414;44.534;18.700;2022-07-29T01:24:33;16.70;99.90
25512;DHT22;13414;44.534;18.700;2022-07-29T01:27:09;16.70;99.90
25512;DHT22;13414;44.534;18.700;2022-07-29T01:29:44;16.70;99.90
25512;DHT22;13414;44.534;18.700;2022-07-29T01:32:14;16.60;99.90
25512;DHT22;13414;44.534;18.700;2022-07-29T01:34:48;16.60;99.90
25512;DHT22;13414;44.534;18.700;2022-07-29T01:37:21;16.50;99.90
25512;DHT22;13414;44.534;18.700;2022-07-29T01:39:51;16.50;99.90
25512;DHT22;13414;44.534;18.700;2022-07-29T01:42:26;16.50;99.90
25512;DHT22;13414;44.534;18.700;2022-07-29T01:44:57;16.50;99.90
25512;DHT22;13414;44.534;18.700;2022-07-29T01:47:31;16.50;99.90
25512;DHT22;13414;44.534;18.700;2022-07-29T01:50:00;16.40;99.90
25512;DHT22;13414;44.534;18.700;2022-07-29T01:52:34;16.40;99.90
25512;DHT22;13414;44.534;18.700;2022-07-29T01:55:07;16.40;99.90
25512;DHT22;13414;44.534;18.700;2022-07-29T01:57:39;16.30;99.90
25512;DHT22;13414;44.534;18.700;2022-07-29T02:00:10;16.30;99.90
25512;DHT22;13414;44.534;18.700;2022-07-29T02:02:39;16.30;99.90
25512;DHT22;13414;44.534;18.700;2022-07-29T02:05:09;16.20;99.90
25512;DHT22;13414;44.534;18.700;2022-07-29T02:07:38;16.20;99.90
25512;DHT22;13414;44.534;18.700;2022-07-29T02:10:08;16.20;99.90
25512;DHT22;13414;44.534;18.700;2022-07-29T02:12:37;16.10;99.90
25512;DHT22;13414;44.534;18.700;2022-07-29T02:15:07;16.10;99.90
25512;DHT22;13414;44.534;18.700;2022-07-29T02:17:39;16.10;99.90
25512;DHT22;13414;44.534;18.700;2022-07-29T02:20:09;16.00;99.90
25512;DHT22;13414;44.534;18.700;2022-07-29T02:22:38;16.00;99.90
25512;DHT22;13414;44.534;18.700;2022-07-29T02:25:07;16.10;99.90
25512;DHT22;13414;44.534;18.700;2022-07-29T02:27:35;16.10;99.90
25512;DHT22;13414;44.534;18.700;2022-07-29T02:30:06;16.00;99.90
25512;DHT22;13414;44.534;18.700;2022-07-29T02:32:37;16.00;99.90
25512;DHT22;13414;44.534;18.700;2022-07-29T02:35:08;16.00;99.90
25512;DHT22;13414;44.534;18.700;2022-07-29T02:37:36;16.00;99.90
25512;DHT22;13414;44.534;18.700;2022-07-29T02:40:05;15.90;99.90
25512;DHT22;13414;44.534;18.700;2022-07-29T02:42:33;16.00;99.90
25512;DHT22;13414;44.534;18.700;2022-07-29T02:45:02;15.90;99.90
25512;DHT22;13414;44.534;18.700;2022-07-29T02:47:35;16.00;99.90
25512;DHT22;13414;44.534;18.700;2022-07-29T02:50:07;15.90;99.90
25512;DHT22;13414;44.534;18.700;2022-07-29T02:52:41;15.90;99.90
25512;DHT22;13414;44.534;18.700;2022-07-29T02:55:15;15.90;99.90
25512;DHT22;13414;44.534;18.700;2022-07-29T02:57:46;15.80;99.90
25512;DHT22;13414;44.534;18.700;2022-07-29T03:00:15;15.80;99.90
25512;DHT22;13414;44.534;18.700;2022-07-29T03:02:45;15.80;99.90
25512;DHT22;13414;44.534;18.700;2022-07-29T03:05:19;15.70;99.90
25512;DHT22;13414;44.534;18.700;2022-07-29T03:07:51;15.70;99.90
25512;DHT22;13414;44.534;18.700;2022-07-29T03:10:20;15.70;99.90
25512;DHT22;13414;44.534;18.700;2022-07-29T03:12:48;15.70;99.90
25512;DHT22;13414;44.534;18.700;2022-07-29T03:15:16;15.80;99.90
25512;DHT22;13414;44.534;18.700;2022-07-29T03:17:45;15.80;99.90
25512;DHT22;13414;44.534;18.700;2022-07-29T03:20:14;15.80;99.90
25512;DHT22;13414;44.534;18.700;2022-07-29T03:22:42;15.80;99.90
25512;DHT22;13414;44.534;18.700;2022-07-29T03:25:13;15.80;99.90
25512;DHT22;13414;44.534;18.700;2022-07-29T03:27:40;15.70;99.90
25512;DHT22;13414;44.534;18.700;2022-07-29T03:30:09;15.70;99.90
25512;DHT22;13414;44.534;18.700;2022-07-29T03:32:37;15.70;99.90
25512;DHT22;13414;44.534;18.700;2022-07-29T03:37:43;15.70;99.90
25512;DHT22;13414;44.534;18.700;2022-07-29T03:40:15;15.80;99.90
25512;DHT22;13414;44.534;18.700;2022-07-29T03:42:45;15.70;99.90
25512;DHT22;13414;44.534;18.700;2022-07-29T03:45:15;15.80;99.90
25512;DHT22;13414;44.534;18.700;2022-07-29T03:47:48;15.70;99.90
25512;DHT22;13414;44.534;18.700;2022-07-29T03:50:17;15.80;99.90
25512;DHT22;13414;44.534;18.700;2022-07-29T03:52:47;15.80;99.90
25512;DHT22;13414;44.534;18.700;2022-07-29T03:55:15;15.80;99.90
25512;DHT22;13414;44.534;18.700;2022-07-29T03:57:44;15.90;99.90
25512;DHT22;13414;44.534;18.700;2022-07-29T04:00:13;16.00;99.90
25512;DHT22;13414;44.534;18.700;2022-07-29T04:02:43;16.10;99.90
25512;DHT22;13414;44.534;18.700;2022-07-29T04:05:14;16.50;99.90
25512;DHT22;13414;44.534;18.700;2022-07-29T04:07:44;17.00;99.90
25512;DHT22;13414;44.534;18.700;2022-07-29T04:10:13;17.50;99.90
25512;DHT22;13414;44.534;18.700;2022-07-29T04:12:41;17.90;99.90
25512;DHT22;13414;44.534;18.700;2022-07-29T04:15:09;18.40;99.90
25512;DHT22;13414;44.534;18.700;2022-07-29T04:17:37;18.80;99.90
25512;DHT22;13414;44.534;18.700;2022-07-29T04:20:05;19.30;99.90
25512;DHT22;13414;44.534;18.700;2022-07-29T04:22:33;19.40;99.90
25512;DHT22;13414;44.534;18.700;2022-07-29T04:25:00;19.80;99.90
25512;DHT22;13414;44.534;18.700;2022-07-29T04:27:29;20.10;99.90
25512;DHT22;13414;44.534;18.700;2022-07-29T04:29:56;20.50;99.90
25512;DHT22;13414;44.534;18.700;2022-07-29T04:32:24;21.00;99.90
25512;DHT22;13414;44.534;18.700;2022-07-29T04:34:52;21.50;99.90
25512;DHT22;13414;44.534;18.700;2022-07-29T04:37:19;21.80;99.90
25512;DHT22;13414;44.534;18.700;2022-07-29T04:39:47;22.10;99.90
25512;DHT22;13414;44.534;18.700;2022-07-29T04:42:14;22.60;99.90
25512;DHT22;13414;44.534;18.700;2022-07-29T04:44:43;22.30;99.90
25512;DHT22;13414;44.534;18.700;2022-07-29T04:47:10;22.20;99.90
25512;DHT22;13414;44.534;18.700;2022-07-29T04:49:38;22.50;99.90
25512;DHT22;13414;44.534;18.700;2022-07-29T04:52:05;22.70;99.90
25512;DHT22;13414;44.534;18.700;2022-07-29T04:54:33;23.30;99.90
25512;DHT22;13414;44.534;18.700;2022-07-29T04:57:00;23.10;99.90
25512;DHT22;13414;44.534;18.700;2022-07-29T04:59:27;22.70;99.90
25512;DHT22;13414;44.534;18.700;2022-07-29T05:01:56;22.30;99.90
25512;DHT22;13414;44.534;18.700;2022-07-29T05:04:23;21.70;99.90
25512;DHT22;13414;44.534;18.700;2022-07-29T05:06:51;21.50;99.90
25512;DHT22;13414;44.534;18.700;2022-07-29T05:09:18;21.40;99.90
25512;DHT22;13414;44.534;18.700;2022-07-29T05:11:45;21.40;99.90
25512;DHT22;13414;44.534;18.700;2022-07-29T05:14:13;21.60;99.90
25512;DHT22;13414;44.534;18.700;2022-07-29T05:16:40;21.60;99.90
25512;DHT22;13414;44.534;18.700;2022-07-29T05:19:09;21.90;99.90
25512;DHT22;13414;44.534;18.700;2022-07-29T05:21:36;22.70;99.90
25512;DHT22;13414;44.534;18.700;2022-07-29T05:24:04;23.50;99.90
25512;DHT22;13414;44.534;18.700;2022-07-29T05:26:31;23.90;99.90
25512;DHT22;13414;44.534;18.700;2022-07-29T05:28:58;24.10;99.90
25512;DHT22;13414;44.534;18.700;2022-07-29T05:31:26;24.20;99.90
25512;DHT22;13414;44.534;18.700;2022-07-29T05:33:54;23.80;99.90
25512;DHT22;13414;44.534;18.700;2022-07-29T05:36:23;24.00;99.90
25512;DHT22;13414;44.534;18.700;2022-07-29T05:38:50;23.90;99.90
25512;DHT22;13414;44.534;18.700;2022-07-29T05:41:18;23.90;99.90
25512;DHT22;13414;44.534;18.700;2022-07-29T05:43:45;24.00;99.90
25512;DHT22;13414;44.534;18.700;2022-07-29T05:46:12;24.00;99.90
25512;DHT22;13414;44.534;18.700;2022-07-29T05:48:40;23.80;99.90
25512;DHT22;13414;44.534;18.700;2022-07-29T05:51:08;23.70;99.90
25512;DHT22;13414;44.534;18.700;2022-07-29T05:53:37;23.80;99.90
25512;DHT22;13414;44.534;18.700;2022-07-29T05:56:05;23.90;99.90
25512;DHT22;13414;44.534;18.700;2022-07-29T05:58:33;24.10;99.90
25512;DHT22;13414;44.534;18.700;2022-07-29T06:01:00;23.90;99.90
25512;DHT22;13414;44.534;18.700;2022-07-29T06:03:28;23.80;99.90
25512;DHT22;13414;44.534;18.700;2022-07-29T06:05:56;24.00;99.90
25512;DHT22;13414;44.534;18.700;2022-07-29T06:08:23;24.40;99.90
25512;DHT22;13414;44.534;18.700;2022-07-29T06:10:52;24.70;99.90
25512;DHT22;13414;44.534;18.700;2022-07-29T06:13:19;24.70;99.90
25512;DHT22;13414;44.534;18.700;2022-07-29T06:15:46;24.70;99.90
25512;DHT22;13414;44.534;18.700;2022-07-29T06:18:14;24.80;99.90
25512;DHT22;13414;44.534;18.700;2022-07-29T06:20:41;25.10;99.90
25512;DHT22;13414;44.534;18.700;2022-07-29T06:23:09;25.50;99.90
25512;DHT22;13414;44.534;18.700;2022-07-29T06:25:36;25.60;99.90
25512;DHT22;13414;44.534;18.700;2022-07-29T06:28:05;25.80;99.90
25512;DHT22;13414;44.534;18.700;2022-07-29T06:30:32;25.90;99.90
25512;DHT22;13414;44.534;18.700;2022-07-29T06:33:00;26.30;99.90
25512;DHT22;13414;44.534;18.700;2022-07-29T06:35:27;26.30;99.90
25512;DHT22;13414;44.534;18.700;2022-07-29T06:37:55;26.20;99.90
25512;DHT22;13414;44.534;18.700;2022-07-29T06:40:23;25.90;99.90
25512;DHT22;13414;44.534;18.700;2022-07-29T06:43:08;26.10;99.90
25512;DHT22;13414;44.534;18.700;2022-07-29T06:45:36;26.40;99.90
25512;DHT22;13414;44.534;18.700;2022-07-29T06:48:12;26.60;99.90
25512;DHT22;13414;44.534;18.700;2022-07-29T06:50:39;26.50;99.90
25512;DHT22;13414;44.534;18.700;2022-07-29T06:53:07;26.70;99.90
25512;DHT22;13414;44.534;18.700;2022-07-29T06:55:34;26.40;99.90
25512;DHT22;13414;44.534;18.700;2022-07-29T06:58:02;26.60;99.90
25512;DHT22;13414;44.534;18.700;2022-07-29T07:00:31;26.90;99.90
25512;DHT22;13414;44.534;18.700;2022-07-29T07:02:59;27.00;99.90
25512;DHT22;13414;44.534;18.700;2022-07-29T07:05:26;26.90;99.90
25512;DHT22;13414;44.534;18.700;2022-07-29T07:07:53;26.60;99.90
25512;DHT22;13414;44.534;18.700;2022-07-29T07:10:21;26.50;99.90
25512;DHT22;13414;44.534;18.700;2022-07-29T07:12:48;26.80;99.90
25512;DHT22;13414;44.534;18.700;2022-07-29T07:15:15;26.60;99.90
25512;DHT22;13414;44.534;18.700;2022-07-29T07:17:44;26.70;99.90
25512;DHT22;13414;44.534;18.700;2022-07-29T07:20:11;26.80;99.90
25512;DHT22;13414;44.534;18.700;2022-07-29T07:22:38;27.30;99.90
25512;DHT22;13414;44.534;18.700;2022-07-29T07:25:06;27.30;99.90
25512;DHT22;13414;44.534;18.700;2022-07-29T07:27:34;27.50;99.90
25512;DHT22;13414;44.534;18.700;2022-07-29T07:30:02;27.60;99.90
25512;DHT22;13414;44.534;18.700;2022-07-29T07:32:31;27.90;99.90
25512;DHT22;13414;44.534;18.700;2022-07-29T07:35:00;28.20;99.90
25512;DHT22;13414;44.534;18.700;2022-07-29T07:37:27;28.40;99.90
25512;DHT22;13414;44.534;18.700;2022-07-29T07:39:54;28.60;99.90
25512;DHT22;13414;44.534;18.700;2022-07-29T07:42:22;28.50;99.90
25512;DHT22;13414;44.534;18.700;2022-07-29T07:44:49;28.40;99.90
25512;DHT22;13414;44.534;18.700;2022-07-29T07:47:16;28.40;99.90
25512;DHT22;13414;44.534;18.700;2022-07-29T07:49:45;28.60;99.90
25512;DHT22;13414;44.534;18.700;2022-07-29T07:52:15;28.70;99.90
25512;DHT22;13414;44.534;18.700;2022-07-29T07:54:43;28.80;99.90
25512;DHT22;13414;44.534;18.700;2022-07-29T07:57:11;28.90;99.90
25512;DHT22;13414;44.534;18.700;2022-07-29T07:59:38;29.20;99.90
25512;DHT22;13414;44.534;18.700;2022-07-29T08:02:06;29.30;99.90
25512;DHT22;13414;44.534;18.700;2022-07-29T08:04:34;29.20;99.90
25512;DHT22;13414;44.534;18.700;2022-07-29T08:07:03;29.30;99.90
25512;DHT22;13414;44.534;18.700;2022-07-29T08:09:33;29.40;99.90
25512;DHT22;13414;44.534;18.700;2022-07-29T08:12:01;29.60;99.90
25512;DHT22;13414;44.534;18.700;2022-07-29T08:14:32;29.60;99.90
25512;DHT22;13414;44.534;18.700;2022-07-29T08:16:59;29.40;99.30
25512;DHT22;13414;44.534;18.700;2022-07-29T08:19:27;29.60;99.10
25512;DHT22;13414;44.534;18.700;2022-07-29T08:21:56;29.90;96.40
25512;DHT22;13414;44.534;18.700;2022-07-29T08:24:24;29.90;95.40
25512;DHT22;13414;44.534;18.700;2022-07-29T08:27:10;29.90;95.20
25512;DHT22;13414;44.534;18.700;2022-07-29T08:29:37;29.90;95.70
25512;DHT22;13414;44.534;18.700;2022-07-29T08:32:05;30.10;97.50
25512;DHT22;13414;44.534;18.700;2022-07-29T08:34:33;30.20;98.10
25512;DHT22;13414;44.534;18.700;2022-07-29T08:37:00;30.20;98.70
25512;DHT22;13414;44.534;18.700;2022-07-29T08:39:28;30.30;97.00
25512;DHT22;13414;44.534;18.700;2022-07-29T08:41:55;30.40;96.40
25512;DHT22;13414;44.534;18.700;2022-07-29T08:44:24;30.20;97.00
25512;DHT22;13414;44.534;18.700;2022-07-29T08:46:52;30.30;95.00
25512;DHT22;13414;44.534;18.700;2022-07-29T08:49:19;30.00;94.40
25512;DHT22;13414;44.534;18.700;2022-07-29T08:51:47;30.10;93.30
25512;DHT22;13414;44.534;18.700;2022-07-29T08:54:17;30.20;94.20
25512;DHT22;13414;44.534;18.700;2022-07-29T08:56:47;30.10;93.90
25512;DHT22;13414;44.534;18.700;2022-07-29T08:59:16;30.10;93.70
25512;DHT22;13414;44.534;18.700;2022-07-29T09:01:48;30.40;92.10
25512;DHT22;13414;44.534;18.700;2022-07-29T09:04:15;30.60;93.70
25512;DHT22;13414;44.534;18.700;2022-07-29T09:06:46;30.70;92.60
25512;DHT22;13414;44.534;18.700;2022-07-29T09:09:14;30.60;94.00
25512;DHT22;13414;44.534;18.700;2022-07-29T09:11:42;29.70;95.40
25512;DHT22;13414;44.534;18.700;2022-07-29T09:14:12;28.60;96.90
25512;DHT22;13414;44.534;18.700;2022-07-29T09:16:50;27.70;99.90
25512;DHT22;13414;44.534;18.700;2022-07-29T09:19:26;27.40;99.90
25512;DHT22;13414;44.534;18.700;2022-07-29T09:21:55;27.40;99.90
25512;DHT22;13414;44.534;18.700;2022-07-29T09:24:37;27.30;99.90
25512;DHT22;13414;44.534;18.700;2022-07-29T09:27:19;27.30;99.90
25512;DHT22;13414;44.534;18.700;2022-07-29T09:29:55;27.20;99.90
25512;DHT22;13414;44.534;18.700;2022-07-29T09:32:24;27.20;99.90
25512;DHT22;13414;44.534;18.700;2022-07-29T09:35:19;26.90;99.90
25512;DHT22;13414;44.534;18.700;2022-07-29T09:37:47;26.70;99.90
25512;DHT22;13414;44.534;18.700;2022-07-29T09:40:16;26.50;99.90
25512;DHT22;13414;44.534;18.700;2022-07-29T09:42:44;26.50;99.90
25512;DHT22;13414;44.534;18.700;2022-07-29T09:45:12;26.30;99.90
25512;DHT22;13414;44.534;18.700;2022-07-29T09:47:46;26.60;99.90
25512;DHT22;13414;44.534;18.700;2022-07-29T09:50:15;26.60;99.90
25512;DHT22;13414;44.534;18.700;2022-07-29T09:52:47;26.40;99.90
25512;DHT22;13414;44.534;18.700;2022-07-29T09:55:15;26.30;99.90
25512;DHT22;13414;44.534;18.700;2022-07-29T09:57:42;26.10;99.90
25512;DHT22;13414;44.534;18.700;2022-07-29T10:00:12;26.10;99.90
25512;DHT22;13414;44.534;18.700;2022-07-29T10:02:41;26.20;99.90
25512;DHT22;13414;44.534;18.700;2022-07-29T10:05:19;26.40;99.90
25512;DHT22;13414;44.534;18.700;2022-07-29T10:07:48;26.40;99.90
25512;DHT22;13414;44.534;18.700;2022-07-29T10:10:20;26.20;99.90
25512;DHT22;13414;44.534;18.700;2022-07-29T10:12:55;26.30;99.90
25512;DHT22;13414;44.534;18.700;2022-07-29T10:15:24;26.40;99.90
25512;DHT22;13414;44.534;18.700;2022-07-29T10:17:52;26.50;99.90
25512;DHT22;13414;44.534;18.700;2022-07-29T10:20:23;26.60;99.90
25512;DHT22;13414;44.534;18.700;2022-07-29T10:22:51;26.80;99.90
25512;DHT22;13414;44.534;18.700;2022-07-29T10:25:20;26.80;99.90
25512;DHT22;13414;44.534;18.700;2022-07-29T10:27:48;26.70;99.90
25512;DHT22;13414;44.534;18.700;2022-07-29T10:30:17;26.70;99.90
25512;DHT22;13414;44.534;18.700;2022-07-29T10:33:11;27.00;99.90
25512;DHT22;13414;44.534;18.700;2022-07-29T10:35:57;27.00;99.90
25512;DHT22;13414;44.534;18.700;2022-07-29T10:38:43;27.30;99.90
25512;DHT22;13414;44.534;18.700;2022-07-29T10:41:33;27.20;99.90
25512;DHT22;13414;44.534;18.700;2022-07-29T10:44:06;27.00;99.90
25512;DHT22;13414;44.534;18.700;2022-07-29T10:46:36;26.90;99.90
25512;DHT22;13414;44.534;18.700;2022-07-29T10:49:09;26.80;99.90
25512;DHT22;13414;44.534;18.700;2022-07-29T10:52:01;27.10;99.90
25512;DHT22;13414;44.534;18.700;2022-07-29T10:54:47;27.10;99.90
25512;DHT22;13414;44.534;18.700;2022-07-29T10:57:21;27.00;99.90
25512;DHT22;13414;44.534;18.700;2022-07-29T11:00:27;27.00;99.90
25512;DHT22;13414;44.534;18.700;2022-07-29T11:02:54;27.00;99.90
25512;DHT22;13414;44.534;18.700;2022-07-29T11:05:24;27.10;99.90
25512;DHT22;13414;44.534;18.700;2022-07-29T11:08:19;27.20;99.90
25512;DHT22;13414;44.534;18.700;2022-07-29T11:13:52;27.30;99.90
25512;DHT22;13414;44.534;18.700;2022-07-29T11:16:21;27.40;99.90
25512;DHT22;13414;44.534;18.700;2022-07-29T11:19:20;27.60;99.90
25512;DHT22;13414;44.534;18.700;2022-07-29T11:21:48;27.70;99.90
25512;DHT22;13414;44.534;18.700;2022-07-29T11:24:20;27.70;99.90
25512;DHT22;13414;44.534;18.700;2022-07-29T11:27:08;27.60;99.90
25512;DHT22;13414;44.534;18.700;2022-07-29T11:29:38;27.50;99.90
25512;DHT22;13414;44.534;18.700;2022-07-29T11:32:12;27.70;99.90
25512;DHT22;13414;44.534;18.700;2022-07-29T11:34:40;28.00;99.90
25512;DHT22;13414;44.534;18.700;2022-07-29T11:37:15;27.90;99.90
25512;DHT22;13414;44.534;18.700;2022-07-29T11:40:08;27.60;99.90
25512;DHT22;13414;44.534;18.700;2022-07-29T11:42:47;27.80;99.90
25512;DHT22;13414;44.534;18.700;2022-07-29T11:45:17;27.80;99.90
25512;DHT22;13414;44.534;18.700;2022-07-29T11:47:50;28.10;99.90
25512;DHT22;13414;44.534;18.700;2022-07-29T11:50:28;27.90;99.90
25512;DHT22;13414;44.534;18.700;2022-07-29T11:52:56;28.00;99.90
25512;DHT22;13414;44.534;18.700;2022-07-29T11:55:26;28.40;99.90
25512;DHT22;13414;44.534;18.700;2022-07-29T11:57:54;28.60;99.90
25512;DHT22;13414;44.534;18.700;2022-07-29T12:00:24;28.80;99.90
25512;DHT22;13414;44.534;18.700;2022-07-29T12:03:09;28.90;99.90
25512;DHT22;13414;44.534;18.700;2022-07-29T12:05:39;28.90;99.90
25512;DHT22;13414;44.534;18.700;2022-07-29T12:08:09;29.00;99.90
25512;DHT22;13414;44.534;18.700;2022-07-29T12:10:38;29.00;99.80
25512;DHT22;13414;44.534;18.700;2022-07-29T12:13:06;29.20;98.10
25512;DHT22;13414;44.534;18.700;2022-07-29T12:15:36;29.00;98.10
25512;DHT22;13414;44.534;18.700;2022-07-29T12:18:11;28.90;98.50
25512;DHT22;13414;44.534;18.700;2022-07-29T12:20:39;29.10;99.40
25512;DHT22;13414;44.534;18.700;2022-07-29T12:23:07;28.90;99.40
25512;DHT22;13414;44.534;18.700;2022-07-29T12:25:35;28.90;99.30
25512;DHT22;13414;44.534;18.700;2022-07-29T12:28:06;28.80;98.60
25512;DHT22;13414;44.534;18.700;2022-07-29T12:30:39;28.90;97.50
25512;DHT22;13414;44.534;18.700;2022-07-29T12:33:15;28.90;98.10
25512;DHT22;13414;44.534;18.700;2022-07-29T12:35:45;29.20;97.90
25512;DHT22;13414;44.534;18.700;2022-07-29T12:38:13;29.10;97.40
25512;DHT22;13414;44.534;18.700;2022-07-29T12:40:41;29.10;96.70
25512;DHT22;13414;44.534;18.700;2022-07-29T12:43:12;29.20;96.40
25512;DHT22;13414;44.534;18.700;2022-07-29T12:45:42;29.30;96.00
25512;DHT22;13414;44.534;18.700;2022-07-29T12:48:09;29.90;94.00
25512;DHT22;13414;44.534;18.700;2022-07-29T12:50:52;30.20;92.90
25512;DHT22;13414;44.534;18.700;2022-07-29T12:53:19;30.20;91.50
25512;DHT22;13414;44.534;18.700;2022-07-29T12:55:49;30.00;92.10
25512;DHT22;13414;44.534;18.700;2022-07-29T12:58:34;30.30;90.60
25512;DHT22;13414;44.534;18.700;2022-07-29T13:01:07;30.60;90.00
25512;DHT22;13414;44.534;18.700;2022-07-29T13:03:52;30.70;89.30
25512;DHT22;13414;44.534;18.700;2022-07-29T13:06:44;31.00;88.90
25512;DHT22;13414;44.534;18.700;2022-07-29T13:09:14;31.10;88.30
25512;DHT22;13414;44.534;18.700;2022-07-29T13:11:43;31.10;88.30
25512;DHT22;13414;44.534;18.700;2022-07-29T13:14:13;31.20;89.00
25512;DHT22;13414;44.534;18.700;2022-07-29T13:17:02;31.20;87.40
25512;DHT22;13414;44.534;18.700;2022-07-29T13:19:34;31.20;86.60
25512;DHT22;13414;44.534;18.700;2022-07-29T13:22:02;31.10;85.80
25512;DHT22;13414;44.534;18.700;2022-07-29T13:24:30;31.20;84.70
25512;DHT22;13414;44.534;18.700;2022-07-29T13:26:57;31.40;84.30
25512;DHT22;13414;44.534;18.700;2022-07-29T13:29:26;31.40;85.20
25512;DHT22;13414;44.534;18.700;2022-07-29T13:31:53;31.30;84.40
25512;DHT22;13414;44.534;18.700;2022-07-29T13:34:20;31.40;84.00
25512;DHT22;13414;44.534;18.700;2022-07-29T13:36:49;31.50;83.10
25512;DHT22;13414;44.534;18.700;2022-07-29T13:39:18;31.70;82.60
25512;DHT22;13414;44.534;18.700;2022-07-29T13:41:45;31.70;83.90
25512;DHT22;13414;44.534;18.700;2022-07-29T13:44:12;31.80;82.00
25512;DHT22;13414;44.534;18.700;2022-07-29T13:46:41;31.80;81.10
25512;DHT22;13414;44.534;18.700;2022-07-29T13:49:08;31.90;81.90
25512;DHT22;13414;44.534;18.700;2022-07-29T13:51:37;32.10;81.00
25512;DHT22;13414;44.534;18.700;2022-07-29T13:54:04;32.20;81.00
25512;DHT22;13414;44.534;18.700;2022-07-29T13:56:32;32.30;80.40
25512;DHT22;13414;44.534;18.700;2022-07-29T13:58:59;32.30;79.90
25512;DHT22;13414;44.534;18.700;2022-07-29T14:01:27;32.40;80.10
25512;DHT22;13414;44.534;18.700;2022-07-29T14:03:57;32.30;79.10
25512;DHT22;13414;44.534;18.700;2022-07-29T14:06:25;32.20;79.30
25512;DHT22;13414;44.534;18.700;2022-07-29T14:08:52;32.30;75.30
25512;DHT22;13414;44.534;18.700;2022-07-29T14:11:19;32.30;74.40
25512;DHT22;13414;44.534;18.700;2022-07-29T14:13:47;32.30;73.80
25512;DHT22;13414;44.534;18.700;2022-07-29T14:16:14;32.40;75.30
25512;DHT22;13414;44.534;18.700;2022-07-29T14:18:42;32.50;75.70
25512;DHT22;13414;44.534;18.700;2022-07-29T14:21:10;32.50;77.20
25512;DHT22;13414;44.534;18.700;2022-07-29T14:23:38;32.60;77.00
25512;DHT22;13414;44.534;18.700;2022-07-29T14:26:06;32.50;77.20
25512;DHT22;13414;44.534;18.700;2022-07-29T14:28:34;32.50;77.70
25512;DHT22;13414;44.534;18.700;2022-07-29T14:31:01;32.50;77.30
25512;DHT22;13414;44.534;18.700;2022-07-29T14:33:28;32.50;77.00
25512;DHT22;13414;44.534;18.700;2022-07-29T14:35:56;32.70;77.30
25512;DHT22;13414;44.534;18.700;2022-07-29T14:38:24;32.70;75.50
25512;DHT22;13414;44.534;18.700;2022-07-29T14:40:52;32.70;76.40
25512;DHT22;13414;44.534;18.700;2022-07-29T14:43:19;32.70;76.10
25512;DHT22;13414;44.534;18.700;2022-07-29T14:45:46;32.70;76.10
25512;DHT22;13414;44.534;18.700;2022-07-29T14:48:14;32.70;74.10
25512;DHT22;13414;44.534;18.700;2022-07-29T14:50:41;32.60;75.00
25512;DHT22;13414;44.534;18.700;2022-07-29T14:53:08;32.60;73.80
25512;DHT22;13414;44.534;18.700;2022-07-29T14:55:39;32.60;71.60
25512;DHT22;13414;44.534;18.700;2022-07-29T14:58:07;32.60;70.30
25512;DHT22;13414;44.534;18.700;2022-07-29T15:00:35;32.50;69.70
25512;DHT22;13414;44.534;18.700;2022-07-29T15:03:04;32.50;70.70
25512;DHT22;13414;44.534;18.700;2022-07-29T15:05:34;32.50;69.20
25512;DHT22;13414;44.534;18.700;2022-07-29T15:08:02;32.50;68.90
25512;DHT22;13414;44.534;18.700;2022-07-29T15:10:30;32.40;68.60
25512;DHT22;13414;44.534;18.700;2022-07-29T15:12:59;32.40;68.80
25512;DHT22;13414;44.534;18.700;2022-07-29T15:15:26;32.40;68.30
25512;DHT22;13414;44.534;18.700;2022-07-29T15:17:53;32.40;68.60
25512;DHT22;13414;44.534;18.700;2022-07-29T15:20:21;32.40;68.70
25512;DHT22;13414;44.534;18.700;2022-07-29T15:22:50;32.40;68.90
25512;DHT22;13414;44.534;18.700;2022-07-29T15:25:18;32.40;69.10
25512;DHT22;13414;44.534;18.700;2022-07-29T15:27:45;32.40;69.20
25512;DHT22;13414;44.534;18.700;2022-07-29T15:30:14;32.40;69.20
25512;DHT22;13414;44.534;18.700;2022-07-29T15:32:43;32.50;69.40
25512;DHT22;13414;44.534;18.700;2022-07-29T15:35:10;32.50;69.50
25512;DHT22;13414;44.534;18.700;2022-07-29T15:37:37;32.50;70.50
25512;DHT22;13414;44.534;18.700;2022-07-29T15:40:06;32.50;70.00